Time;durP1;ratioP1;P1;durP2;ratioP2;P2;SDS_P1;SDS_P2;PMS_P1;PMS_P2;Temp;Humidity;BMP_temperature;BMP_pressure;BME280_temperature;BME280_humidity;BME280_pressure;Samples;Min_cycle;Max_cycle;Signal;HPM_P1;HPM_P2
2022/10/31 00:00:14;;;;;;;15.15;6.15;;;;;;;12.84;100.00;101691.19;6200553;28;20066;-72
2022/10/31 00:03:16;;;;;;;11.23;5.68;;;;;;;12.92;100.00;101691.69;6201078;28;20054;-71
2022/10/31 00:06:19;;;;;;;16.67;6.82;;;;;;;12.92;100.00;101699.59;6200190;28;20047;-72
2022/10/31 00:09:20;;;;;;;14.38;5.72;;;;;;;12.96;100.00;101698.53;6200971;28;20146;-71
2022/10/31 00:12:21;;;;;;;10.35;6.05;;;;;;;12.94;100.00;101709.16;6199371;28;20057;-72
2022/10/31 00:15:23;;;;;;;9.20;5.53;;;;;;;12.98;100.00;101714.28;6200292;28;20554;-72
2022/10/31 00:18:24;;;;;;;9.20;5.28;;;;;;;12.97;100.00;101712.56;6200430;28;20053;-71
2022/10/31 00:21:28;;;;;;;16.50;6.15;;;;;;;12.98;100.00;101717.75;6200197;28;20053;-72
2022/10/31 00:24:29;;;;;;;10.65;6.20;;;;;;;12.98;100.00;101722.19;6200128;28;20061;-72
2022/10/31 00:27:30;;;;;;;14.07;6.30;;;;;;;12.93;100.00;101723.25;6200308;28;20049;-72
2022/10/31 00:30:32;;;;;;;13.40;5.80;;;;;;;12.93;100.00;101731.16;6200134;28;20057;-72
2022/10/31 00:33:36;;;;;;;12.45;6.22;;;;;;;12.85;100.00;101735.97;6200192;28;20494;-72
2022/10/31 00:36:39;;;;;;;15.18;6.93;;;;;;;12.82;100.00;101743.19;6199783;28;20082;-72
2022/10/31 00:39:40;;;;;;;11.98;5.57;;;;;;;12.79;100.00;101741.53;6199919;28;20065;-72
2022/10/31 00:42:42;;;;;;;12.38;6.28;;;;;;;12.77;100.00;101745.19;6200002;28;20046;-72
2022/10/31 00:45:44;;;;;;;12.65;6.90;;;;;;;12.74;100.00;101740.88;6199569;28;20057;-72
2022/10/31 00:48:45;;;;;;;15.80;6.70;;;;;;;12.71;100.00;101743.66;6199603;28;20057;-72
2022/10/31 00:51:49;;;;;;;11.55;5.95;;;;;;;12.67;100.00;101752.63;6199524;28;20054;-72
2022/10/31 00:54:50;;;;;;;15.27;6.22;;;;;;;12.63;100.00;101757.22;6199307;28;20046;-72
2022/10/31 00:57:51;;;;;;;17.92;6.68;;;;;;;12.61;100.00;101758.19;6199665;28;20050;-72
2022/10/31 01:00:55;;;;;;;19.23;7.22;;;;;;;12.56;100.00;101758.41;6199030;28;20054;-72
2022/10/31 01:03:56;;;;;;;12.25;6.05;;;;;;;12.54;100.00;101765.53;6199253;28;20058;-72
2022/10/31 01:06:59;;;;;;;15.50;7.57;;;;;;;12.53;100.00;101765.59;6198874;28;20053;-71
2022/10/31 01:10:00;;;;;;;14.73;6.20;;;;;;;12.48;100.00;101764.94;6198071;28;20054;-72
2022/10/31 01:13:02;;;;;;;11.15;6.13;;;;;;;12.42;100.00;101766.09;6199013;28;20054;-71
2022/10/31 01:16:05;;;;;;;12.68;7.05;;;;;;;12.39;100.00;101779.41;6198588;28;20058;-72
2022/10/31 01:19:07;;;;;;;16.65;6.97;;;;;;;12.37;100.00;101774.19;6198997;28;20050;-72
2022/10/31 01:22:10;;;;;;;18.45;7.13;;;;;;;12.34;100.00;101771.69;6198875;28;20046;-72
2022/10/31 01:25:11;;;;;;;11.18;5.88;;;;;;;12.29;100.00;101767.56;6198521;28;20150;-71
2022/10/31 01:28:12;;;;;;;13.55;6.22;;;;;;;12.27;100.00;101772.91;6198665;28;20513;-72
2022/10/31 01:31:15;;;;;;;17.70;6.43;;;;;;;12.24;100.00;101769.53;6198506;28;20424;-71
2022/10/31 01:34:18;;;;;;;16.65;6.60;;;;;;;12.23;100.00;101778.38;6198181;28;20076;-72
2022/10/31 01:37:21;;;;;;;17.38;6.93;;;;;;;12.19;100.00;101767.09;6198722;28;20053;-72
2022/10/31 01:40:22;;;;;;;17.55;6.88;;;;;;;12.15;100.00;101776.91;6198164;28;20495;-72
2022/10/31 01:43:24;;;;;;;15.25;7.03;;;;;;;12.13;100.00;101776.13;6198858;28;20054;-72
2022/10/31 01:46:28;;;;;;;19.67;7.88;;;;;;;12.10;100.00;101773.63;6197782;28;20050;-71
2022/10/31 01:49:35;;;;;;;15.52;7.78;;;;;;;12.10;100.00;101778.91;6215941;28;20042;-72
2022/10/31 01:52:41;;;;;;;15.45;7.03;;;;;;;12.12;100.00;101784.09;6222398;28;20081;-72
2022/10/31 01:55:45;;;;;;;16.25;7.65;;;;;;;12.13;100.00;101788.47;6222138;28;20497;-72
2022/10/31 01:58:47;;;;;;;15.88;7.07;;;;;;;12.12;100.00;101792.00;6222457;28;20050;-72
2022/10/31 02:01:51;;;;;;;14.85;7.32;;;;;;;12.13;100.00;101791.09;6222500;28;20054;-72
2022/10/31 02:04:54;;;;;;;17.65;7.10;;;;;;;12.11;100.00;101782.38;6222338;28;20053;-72
2022/10/31 02:08:01;;;;;;;19.30;8.52;;;;;;;12.06;100.00;101779.09;6222243;28;20050;-72
2022/10/31 02:11:03;;;;;;;18.73;7.53;;;;;;;12.03;100.00;101785.34;6222022;28;20056;-72
2022/10/31 02:14:04;;;;;;;13.73;7.93;;;;;;;12.06;100.00;101779.09;6221964;28;20433;-72
2022/10/31 02:17:06;;;;;;;13.27;6.97;;;;;;;12.04;100.00;101794.13;6222171;28;20501;-71
2022/10/31 02:20:15;;;;;;;18.95;8.15;;;;;;;12.02;100.00;101790.69;6221894;28;20053;-72
2022/10/31 02:23:31;;;;;;;;;;;;;;;12.00;100.00;101790.75;6222806;28;20505;-72
2022/10/31 02:26:44;;;;;;;16.83;7.95;;;;;;;12.00;100.00;101795.19;6221783;28;20389;-72
2022/10/31 02:30:01;;;;;;;15.05;7.13;;;;;;;12.02;100.00;101791.53;6222102;28;20054;-72
2022/10/31 02:33:16;;;;;;;19.25;8.60;;;;;;;12.02;100.00;101785.41;6222290;28;20050;-71
2022/10/31 02:36:25;;;;;;;19.33;8.95;;;;;;;12.02;100.00;101790.69;6223318;28;20046;-71
2022/10/31 02:39:31;;;;;;;16.88;8.55;;;;;;;12.01;100.00;101792.47;6227030;28;20046;-72
2022/10/31 02:42:40;;;;;;;18.63;8.50;;;;;;;12.00;100.00;101787.28;6226588;28;20054;-72
2022/10/31 02:45:48;;;;;;;15.40;8.20;;;;;;;11.98;100.00;101794.38;6226733;28;20050;-71
2022/10/31 02:48:55;;;;;;;22.55;8.63;;;;;;;11.93;100.00;101798.06;6226791;28;20046;-71
2022/10/31 02:51:56;;;;;;;17.42;8.35;;;;;;;11.92;100.00;101801.59;6226591;28;20050;-72
2022/10/31 02:54:58;;;;;;;22.58;9.23;;;;;;;11.93;100.00;101802.47;6226525;28;20049;-72
2022/10/31 02:58:05;;;;;;;20.90;9.13;;;;;;;11.91;100.00;101797.28;6226682;28;20053;-72
2022/10/31 03:01:35;;;;;;;23.00;8.18;;;;;;;11.89;100.00;101808.78;6226502;28;20050;-72
2022/10/31 03:04:46;;;;;;;;;;;;;;;11.86;100.00;101801.88;6226825;28;20089;-72
2022/10/31 03:07:57;;;;;;;20.88;8.63;;;;;;;11.82;100.00;101808.19;6226499;28;19922;-72
2022/10/31 03:11:00;;;;;;;17.05;8.32;;;;;;;11.77;100.00;101804.88;6226336;28;20050;-71
2022/10/31 03:14:09;;;;;;;18.25;8.85;;;;;;;11.75;100.00;101817.22;6225768;28;20041;-72
2022/10/31 03:17:19;;;;;;;17.90;8.60;;;;;;;11.69;100.00;101817.47;6224420;28;20054;-72
2022/10/31 03:20:28;;;;;;;14.45;7.90;;;;;;;11.65;100.00;101814.09;6226010;28;20050;-71
2022/10/31 03:23:31;;;;;;;15.02;8.25;;;;;;;11.63;100.00;101818.59;6226219;28;20062;-72
2022/10/31 03:26:35;;;;;;;19.55;9.10;;;;;;;11.60;100.00;101823.13;6225708;28;20042;-72
2022/10/31 03:29:39;;;;;;;17.40;8.32;;;;;;;11.56;100.00;101819.75;6225998;28;20053;-72
2022/10/31 03:32:44;;;;;;;17.67;7.68;;;;;;;11.55;100.00;101811.91;6225921;28;20050;-71
2022/10/31 03:35:51;;;;;;;19.95;8.63;;;;;;;11.51;100.00;101805.06;6225495;28;20054;-71
2022/10/31 03:38:54;;;;;;;18.05;7.00;;;;;;;11.46;100.00;101805.25;6225991;28;20053;-72
2022/10/31 03:41:58;;;;;;;17.35;8.50;;;;;;;11.43;100.00;101798.31;6225244;28;20429;-72
2022/10/31 03:45:05;;;;;;;17.30;8.23;;;;;;;11.42;100.00;101811.56;6225111;28;20046;-71
2022/10/31 03:48:07;;;;;;;16.92;8.10;;;;;;;11.41;100.00;101810.69;6225317;28;20052;-72
2022/10/31 03:51:15;;;;;;;16.30;7.97;;;;;;;11.38;100.00;101820.47;6225657;28;20486;-72
2022/10/31 03:54:25;;;;;;;22.13;8.73;;;;;;;11.35;100.00;101831.13;6225266;28;20501;-71
2022/10/31 03:57:29;;;;;;;;;;;;;;;11.30;100.00;101836.56;6225973;28;20050;-72
2022/10/31 04:00:33;;;;;;;20.20;8.27;;;;;;;11.30;100.00;101846.22;6224967;28;20416;-72
2022/10/31 04:03:38;;;;;;;18.25;8.05;;;;;;;11.27;100.00;101839.34;6225208;28;20053;-72
2022/10/31 04:06:44;;;;;;;16.27;8.23;;;;;;;11.25;100.00;101835.03;6224610;28;20072;-72
2022/10/31 04:09:48;;;;;;;20.05;8.75;;;;;;;11.20;100.00;101845.72;6224858;28;20046;-72
2022/10/31 04:12:55;;;;;;;17.75;8.13;;;;;;;11.17;100.00;101845.84;6225270;28;20050;-72
2022/10/31 04:15:57;;;;;;;14.25;8.07;;;;;;;11.17;100.00;101856.38;6224438;28;20051;-72
2022/10/31 04:18:59;;;;;;;14.38;7.85;;;;;;;11.13;100.00;101855.66;6224842;28;20057;-72
2022/10/31 04:22:02;;;;;;;18.17;8.35;;;;;;;11.12;100.00;101847.78;6224403;28;20061;-72
2022/10/31 04:25:04;;;;;;;19.25;8.57;;;;;;;11.12;100.00;101850.44;6224584;28;20050;-71
2022/10/31 04:28:05;;;;;;;17.27;8.93;;;;;;;11.07;100.00;101845.34;6224550;28;20050;-72
2022/10/31 04:31:06;;;;;;;18.38;7.55;;;;;;;11.06;100.00;101851.53;6224593;28;20049;-72
2022/10/31 04:34:08;;;;;;;22.17;8.80;;;;;;;11.00;100.00;101853.53;6224086;28;20053;-72
2022/10/31 04:37:11;;;;;;;18.73;7.72;;;;;;;10.98;100.00;101848.31;6224390;28;20595;-71
2022/10/31 04:40:12;;;;;;;15.70;7.82;;;;;;;10.96;100.00;101851.94;6224295;28;20049;-71
2022/10/31 04:43:14;;;;;;;18.50;8.23;;;;;;;10.94;100.00;101838.81;6224257;28;20414;-72
2022/10/31 04:46:15;;;;;;;16.25;7.90;;;;;;;10.92;100.00;101835.41;6223739;28;20057;-71
2022/10/31 04:49:16;;;;;;;18.33;7.90;;;;;;;10.93;100.00;101839.75;6224225;28;20046;-71
2022/10/31 04:52:19;;;;;;;18.58;7.85;;;;;;;10.89;100.00;101844.25;6223845;28;20049;-71
2022/10/31 04:55:21;;;;;;;14.65;7.85;;;;;;;10.89;100.00;101849.50;6223738;28;20052;-72
2022/10/31 04:58:22;;;;;;;18.38;7.20;;;;;;;10.84;100.00;101846.19;6223363;28;20050;-72
2022/10/31 05:01:24;;;;;;;21.30;7.75;;;;;;;10.82;100.00;101848.03;6223498;28;20060;-71
2022/10/31 05:04:25;;;;;;;27.45;7.60;;;;;;;10.82;100.00;101858.56;6223459;28;20426;-72
2022/10/31 05:07:28;;;;;;;24.95;9.50;;;;;;;10.84;100.00;101847.97;6223608;28;20053;-71
2022/10/31 05:10:30;;;;;;;24.55;8.82;;;;;;;10.84;100.00;101840.09;6223612;28;20057;-72
2022/10/31 05:13:32;;;;;;;23.63;9.52;;;;;;;10.83;100.00;101844.50;6223498;28;20429;-72
2022/10/31 05:16:33;;;;;;;18.60;8.48;;;;;;;10.80;100.00;101827.97;6222991;28;20045;-72
2022/10/31 05:19:34;;;;;;;23.40;8.35;;;;;;;10.79;100.00;101831.50;6223446;28;20041;-72
2022/10/31 05:22:37;;;;;;;16.85;8.52;;;;;;;10.79;100.00;101837.63;6223245;28;20054;-72
2022/10/31 05:25:41;;;;;;;27.88;9.90;;;;;;;10.80;100.00;101841.09;6223275;28;20138;-72
2022/10/31 05:28:42;;;;;;;19.70;8.20;;;;;;;10.80;100.00;101844.59;6223165;28;20046;-72
2022/10/31 05:31:44;;;;;;;18.40;8.90;;;;;;;10.79;100.00;101845.50;6222915;28;20061;-72
2022/10/31 05:34:45;;;;;;;16.45;7.45;;;;;;;10.80;100.00;101846.38;6222638;28;20045;-72
2022/10/31 05:37:48;;;;;;;20.17;8.68;;;;;;;10.80;100.00;101856.88;6223344;28;20053;-71
2022/10/31 05:40:49;;;;;;;15.82;8.52;;;;;;;10.80;100.00;101854.25;6222840;28;20053;-72
2022/10/31 05:43:51;;;;;;;15.30;7.60;;;;;;;10.83;100.00;101862.03;6222746;28;20061;-71
2022/10/31 05:46:52;;;;;;;13.30;8.10;;;;;;;10.84;100.00;101859.34;6214679;28;20045;-71
2022/10/31 05:49:54;;;;;;;15.60;8.18;;;;;;;10.85;100.00;101850.53;6208763;28;20053;-71
2022/10/31 05:52:58;;;;;;;14.48;8.02;;;;;;;10.83;100.00;101841.84;6208688;28;20053;-72
2022/10/31 05:56:00;;;;;;;14.85;8.68;;;;;;;10.82;100.00;101849.81;6209401;28;20044;-72
2022/10/31 05:59:01;;;;;;;16.10;8.85;;;;;;;10.84;100.00;101842.72;6207511;28;20046;-71
2022/10/31 06:02:03;;;;;;;14.90;7.03;;;;;;;10.89;100.00;101851.28;6209829;28;20060;-71
2022/10/31 06:05:05;;;;;;;12.50;7.20;;;;;;;10.89;100.00;101848.66;6207100;28;20505;-71
2022/10/31 06:08:08;;;;;;;12.82;7.00;;;;;;;10.89;100.00;101843.41;6209298;28;20042;-72
2022/10/31 06:11:09;;;;;;;13.35;7.55;;;;;;;10.88;100.00;101839.06;6207188;28;20042;-71
2022/10/31 06:14:11;;;;;;;16.70;7.93;;;;;;;10.88;100.00;101857.47;6208435;28;20053;-72
2022/10/31 06:17:12;;;;;;;11.00;6.95;;;;;;;10.86;100.00;101852.28;6202504;28;20525;-71
2022/10/31 06:20:13;;;;;;;10.52;6.25;;;;;;;10.84;100.00;101840.94;6206292;28;20050;-71
2022/10/31 06:23:16;;;;;;;10.68;7.10;;;;;;;10.81;100.00;101848.06;6207632;28;20228;-71
2022/10/31 06:26:18;;;;;;;9.93;6.40;;;;;;;10.82;100.00;101848.03;6209272;28;20069;-71
2022/10/31 06:29:19;;;;;;;12.10;6.90;;;;;;;10.82;100.00;101847.19;6206832;28;20109;-71
2022/10/31 06:32:21;;;;;;;9.73;6.22;;;;;;;10.80;100.00;101838.47;6206943;28;20047;-71
2022/10/31 06:35:22;;;;;;;10.27;7.15;;;;;;;10.80;100.00;101846.38;6208703;28;20042;-71
2022/10/31 06:38:26;;;;;;;11.43;6.47;;;;;;;10.83;100.00;101846.25;6207544;28;20055;-71
2022/10/31 06:41:27;;;;;;;8.43;6.03;;;;;;;10.83;100.00;101848.88;6215376;28;20053;-72
2022/10/31 06:44:29;;;;;;;10.57;6.72;;;;;;;10.82;100.00;101857.72;6221802;28;20050;-71
2022/10/31 06:47:30;;;;;;;9.73;6.10;;;;;;;10.81;100.00;101866.47;6221647;28;20050;-72
2022/10/31 06:50:32;;;;;;;12.52;7.32;;;;;;;10.81;100.00;101875.25;6221804;28;20060;-72
2022/10/31 06:53:35;;;;;;;11.32;6.97;;;;;;;10.83;100.00;101875.19;6221886;28;20049;-71
2022/10/31 06:56:36;;;;;;;9.88;6.53;;;;;;;10.82;100.00;101876.09;6221552;28;20054;-72
2022/10/31 06:59:38;;;;;;;11.75;6.30;;;;;;;10.86;100.00;101881.19;6221589;28;20061;-72
2022/10/31 07:02:39;;;;;;;10.63;6.38;;;;;;;10.92;100.00;101883.59;6221465;28;20046;-72
2022/10/31 07:05:41;;;;;;;12.35;6.53;;;;;;;10.95;100.00;101884.41;6221227;28;20422;-72
2022/10/31 07:08:44;;;;;;;13.27;7.28;;;;;;;10.97;100.00;101888.69;6221520;28;20120;-72
2022/10/31 07:11:45;;;;;;;9.90;5.45;;;;;;;11.03;100.00;101888.44;6221359;28;20064;-72
2022/10/31 07:14:46;;;;;;;11.80;6.90;;;;;;;11.06;100.00;101890.97;6221047;28;20050;-72
2022/10/31 07:17:48;;;;;;;11.70;6.28;;;;;;;11.11;100.00;101894.28;6221609;28;20050;-71
2022/10/31 07:20:49;;;;;;;12.40;6.40;;;;;;;11.11;100.00;101899.56;6220974;28;20054;-72
2022/10/31 07:23:52;;;;;;;11.45;6.90;;;;;;;11.12;100.00;101893.38;6225338;28;20049;-72
2022/10/31 07:26:53;;;;;;;12.60;6.65;;;;;;;11.12;100.00;101896.00;6225891;28;20046;-72
2022/10/31 07:29:55;;;;;;;15.73;7.03;;;;;;;11.13;100.00;101900.38;6226235;28;20042;-72
2022/10/31 07:32:56;;;;;;;10.05;6.70;;;;;;;11.14;100.00;101896.81;6225975;28;20049;-71
2022/10/31 07:35:58;;;;;;;12.85;7.68;;;;;;;11.15;100.00;101902.94;6225655;28;20046;-72
2022/10/31 07:39:02;;;;;;;12.30;7.07;;;;;;;11.22;100.00;101906.19;6225956;28;20049;-71
2022/10/31 07:42:03;;;;;;;13.35;7.05;;;;;;;11.26;100.00;101913.06;6225099;28;20050;-71
2022/10/31 07:45:06;;;;;;;14.85;7.90;;;;;;;11.27;100.00;101910.38;6225628;28;20050;-72
2022/10/31 07:48:08;;;;;;;11.93;7.90;;;;;;;11.30;100.00;101907.63;6225345;28;20046;-71
2022/10/31 07:51:09;;;;;;;9.30;6.15;;;;;;;11.32;100.00;101903.16;6225390;28;20049;-72
2022/10/31 07:54:12;;;;;;;9.43;6.20;;;;;;;11.38;100.00;101902.06;6224986;28;20053;-71
2022/10/31 07:57:13;;;;;;;10.65;5.72;;;;;;;11.43;100.00;101905.38;6225468;28;20061;-71
2022/10/31 08:00:15;;;;;;;12.63;6.55;;;;;;;11.45;100.00;101911.47;6225031;28;20049;-71
2022/10/31 08:03:19;;;;;;;12.35;6.57;;;;;;;11.50;100.00;101909.50;6225443;28;20046;-72
2022/10/31 08:06:20;;;;;;;9.73;5.70;;;;;;;11.52;100.00;101904.16;6224662;28;20429;-72
2022/10/31 08:09:23;;;;;;;8.80;6.05;;;;;;;11.57;100.00;101907.47;6225008;28;20046;-71
2022/10/31 08:12:25;;;;;;;12.95;6.68;;;;;;;11.61;100.00;101909.94;6224559;28;20394;-72
2022/10/31 08:15:27;;;;;;;13.27;6.60;;;;;;;11.65;100.00;101890.47;6224562;28;20045;-72
2022/10/31 08:18:29;;;;;;;13.70;6.95;;;;;;;11.71;100.00;101899.03;6224834;28;20096;-72
2022/10/31 08:21:30;;;;;;;10.43;6.10;;;;;;;11.71;100.00;101905.16;6224475;28;20104;-72
2022/10/31 08:24:33;;;;;;;9.45;5.72;;;;;;;11.77;100.00;101896.19;6224635;28;20050;-71
2022/10/31 08:27:35;;;;;;;12.88;7.38;;;;;;;11.79;100.00;101902.22;6224415;28;20050;-72
2022/10/31 08:30:37;;;;;;;11.38;6.85;;;;;;;11.87;100.00;101902.81;6224545;28;20058;-72
2022/10/31 08:33:39;;;;;;;14.02;7.75;;;;;;;11.91;100.00;101900.00;6223711;28;20050;-72
2022/10/31 08:36:42;;;;;;;14.57;7.90;;;;;;;11.97;100.00;101895.41;6224474;28;20097;-72
2022/10/31 08:39:44;;;;;;;17.48;8.95;;;;;;;12.04;100.00;101897.72;6224103;28;20133;-72
2022/10/31 08:42:46;;;;;;;14.15;7.55;;;;;;;12.11;100.00;101893.06;6224219;28;20528;-72
2022/10/31 08:45:49;;;;;;;16.52;7.72;;;;;;;12.18;100.00;101887.47;6223858;28;20050;-72
2022/10/31 08:48:51;;;;;;;13.73;7.60;;;;;;;12.26;100.00;101889.78;6223959;28;20072;-72
2022/10/31 08:51:52;;;;;;;16.92;9.40;;;;;;;12.32;100.00;101892.16;6223815;28;20061;-72
2022/10/31 08:54:55;;;;;;;14.23;8.50;;;;;;;12.34;100.00;101887.69;6223815;28;20058;-72
2022/10/31 08:57:57;;;;;;;17.88;8.80;;;;;;;12.41;100.00;101889.13;6224082;28;20053;-71
2022/10/31 09:01:01;;;;;;;20.80;10.25;;;;;;;12.43;100.00;101884.66;6223502;28;20116;-71
2022/10/31 09:04:02;;;;;;;18.73;8.23;;;;;;;12.48;100.00;101878.31;6223610;28;20502;-71
2022/10/31 09:07:04;;;;;;;20.27;9.13;;;;;;;12.54;100.00;101873.66;6223727;28;20050;-72
2022/10/31 09:10:07;;;;;;;17.42;9.55;;;;;;;12.59;100.00;101874.31;6223193;28;20421;-72
2022/10/31 09:13:13;;;;;;;19.35;10.70;;;;;;;12.60;100.00;101875.16;6224007;28;20050;-72
2022/10/31 09:16:14;;;;;;;17.52;8.90;;;;;;;12.65;100.00;101879.31;6223447;28;20056;-72
2022/10/31 09:19:16;;;;;;;17.60;8.65;;;;;;;12.72;100.00;101872.00;6223274;28;20502;-71
2022/10/31 09:22:17;;;;;;;13.57;6.65;;;;;;;12.81;100.00;101878.63;6223064;28;20056;-72
2022/10/31 09:25:20;;;;;;;21.45;10.70;;;;;;;12.89;100.00;101871.22;6223166;28;20050;-71
2022/10/31 09:28:23;;;;;;;16.33;8.48;;;;;;;12.95;100.00;101870.97;6223140;28;20050;-72
2022/10/31 09:31:25;;;;;;;13.45;7.18;;;;;;;12.98;100.00;101876.09;6221433;28;20520;-72
2022/10/31 09:34:26;;;;;;;13.35;7.47;;;;;;;13.03;100.00;101871.44;6222612;28;20052;-72
2022/10/31 09:37:28;;;;;;;22.23;9.88;;;;;;;13.10;100.00;101872.03;6222885;28;20045;-71
2022/10/31 09:40:35;;;;;;;21.60;10.07;;;;;;;13.14;100.00;101866.56;6222738;28;20046;-72
2022/10/31 09:43:47;;;;;;;22.20;11.45;;;;;;;13.19;100.00;101868.97;6223339;28;20054;-72
2022/10/31 09:46:57;;;;;;;31.20;11.38;;;;;;;13.21;100.00;101869.75;6222419;28;20421;-72
2022/10/31 09:50:10;;;;;;;26.25;11.07;;;;;;;13.29;100.00;101865.00;6220625;28;20050;-72
2022/10/31 09:53:18;;;;;;;21.05;9.07;;;;;;;13.38;100.00;101863.72;6218632;28;20046;-74
2022/10/31 09:56:22;;;;;;;22.02;9.85;;;;;;;13.44;100.00;101864.31;6222419;28;20049;-72
2022/10/31 09:59:29;;;;;;;23.83;10.73;;;;;;;13.56;100.00;101859.34;6222437;28;20049;-72
2022/10/31 10:02:37;;;;;;;34.78;14.05;;;;;;;13.66;100.00;101866.75;6217784;28;20057;-72
2022/10/31 10:05:45;;;;;;;29.08;12.55;;;;;;;13.76;100.00;101856.59;6215156;28;20066;-71
2022/10/31 10:08:46;;;;;;;25.77;12.20;;;;;;;13.82;100.00;101853.66;6214578;28;20056;-71
2022/10/31 10:12:02;;;;;;;26.40;11.40;;;;;;;13.89;100.00;101851.56;6213320;28;20050;-72
2022/10/31 10:15:27;;;;;;;30.35;10.77;;;;;;;13.92;100.00;101862.00;6215564;28;20046;-71
2022/10/31 10:18:38;;;;;;;27.73;12.27;;;;;;;13.98;100.00;101859.03;6220476;28;20053;-72
2022/10/31 10:21:47;;;;;;;22.85;11.10;;;;;;;14.05;100.00;101856.97;6217240;28;20065;-72
2022/10/31 10:24:58;;;;;;;24.55;11.02;;;;;;;14.06;100.00;101859.50;6218546;28;20061;-72
2022/10/31 10:28:09;;;;;;;20.08;8.65;;;;;;;14.06;100.00;101856.00;6217392;28;20054;-71
2022/10/31 10:31:15;;;;;;;19.90;9.13;;;;;;;14.09;100.00;101856.72;6212526;28;20046;-72
2022/10/31 10:34:22;;;;;;;24.25;10.07;;;;;;;14.14;100.00;101846.78;6221925;28;20050;-74
2022/10/31 10:37:30;;;;;;;21.25;9.02;;;;;;;14.22;100.00;101843.75;6222220;28;20056;-72
2022/10/31 10:40:32;;;;;;;21.70;9.23;;;;;;;14.32;100.00;101849.41;6221677;28;20494;-72
2022/10/31 10:43:36;;;;;;;26.13;10.18;;;;;;;14.46;100.00;101846.91;6221161;28;20510;-72
2022/10/31 10:50:07;;;;;;;22.45;9.30;;;;;;;14.61;100.00;101835.53;6216302;28;20049;-72
2022/10/31 10:53:31;;;;;;;20.70;8.95;;;;;;;14.64;100.00;101838.03;6221914;28;20052;-72
2022/10/31 10:56:44;;;;;;;22.13;9.90;;;;;;;14.68;100.00;101846.69;6222325;28;20049;-72
2022/10/31 10:59:47;;;;;;;24.02;10.32;;;;;;;14.78;100.00;101841.75;6225990;28;20049;-72
2022/10/31 11:02:49;;;;;;;22.42;9.05;;;;;;;14.86;100.00;101840.41;6226721;28;20056;-72
2022/10/31 11:05:52;;;;;;;23.23;9.38;;;;;;;14.91;100.00;101841.00;6225979;28;20065;-72
2022/10/31 11:08:54;;;;;;;22.75;9.45;;;;;;;14.97;100.00;101843.31;6226512;28;20049;-72
2022/10/31 11:11:56;;;;;;;23.98;10.05;;;;;;;15.02;100.00;101843.06;6225789;28;20057;-72
2022/10/31 11:15:03;;;;;;;24.95;10.50;;;;;;;15.06;100.00;101835.81;6227987;28;20115;-72
2022/10/31 11:18:05;;;;;;;22.65;10.85;;;;;;;15.07;100.00;101833.06;6250524;28;20049;-72
2022/10/31 11:21:20;;;;;;;20.67;9.48;;;;;;;15.06;100.00;101827.88;6250387;28;20053;-72
2022/10/31 11:24:25;;;;;;;17.73;7.32;;;;;;;15.06;100.00;101823.44;6245779;28;20408;-72
2022/10/31 11:27:27;;;;;;;15.70;6.82;;;;;;;15.11;100.00;101829.31;6243693;28;20616;-73
2022/10/31 11:30:31;;;;;;;20.25;8.45;;;;;;;15.22;100.00;101829.59;6248677;28;20061;-76
2022/10/31 11:33:36;;;;;;;30.75;10.65;;;;;;;15.33;100.00;101812.25;6250276;28;20045;-75
2022/10/31 11:36:40;;;;;;;17.02;8.40;;;;;;;15.45;100.00;101815.06;6250147;28;20042;-72
2022/10/31 11:39:44;;;;;;;17.58;7.78;;;;;;;15.57;100.00;101807.34;6241660;28;20504;-72
2022/10/31 11:42:46;;;;;;;24.65;9.38;;;;;;;15.58;100.00;101803.75;6250363;28;20052;-72
2022/10/31 11:45:49;;;;;;;28.73;11.02;;;;;;;15.57;100.00;101800.25;6249863;28;20049;-72
2022/10/31 11:48:55;;;;;;;19.70;7.57;;;;;;;15.56;100.00;101798.53;6250313;28;20041;-72
2022/10/31 11:51:59;;;;;;;15.18;7.32;;;;;;;15.55;100.00;101807.44;6249877;28;20057;-72
2022/10/31 11:55:14;;;;;;;16.98;7.70;;;;;;;15.53;100.00;101793.41;6249974;28;20059;-73
2022/10/31 11:58:24;;;;;;;15.38;6.50;;;;;;;15.57;100.00;101789.66;6249843;28;20050;-72
2022/10/31 12:01:28;;;;;;;13.05;6.45;;;;;;;15.60;100.00;101791.28;6249634;28;20057;-72
2022/10/31 12:04:40;;;;;;;19.23;7.80;;;;;;;15.67;100.00;101782.06;6249724;28;20117;-72
2022/10/31 12:07:41;;;;;;;14.70;7.63;;;;;;;15.73;100.00;101776.41;6249237;28;20050;-72
2022/10/31 12:10:59;;;;;;;16.52;8.13;;;;;;;15.79;100.00;101781.34;6248482;28;20046;-72
2022/10/31 12:14:21;;;;;;;22.55;9.65;;;;;;;15.85;100.00;101773.03;6249269;28;20058;-72
2022/10/31 12:17:31;;;;;;;18.40;8.88;;;;;;;15.91;100.00;101770.03;6249757;28;20049;-72
2022/10/31 12:20:42;;;;;;;21.42;9.02;;;;;;;15.95;100.00;101768.06;6249359;28;20072;-73
2022/10/31 12:23:56;;;;;;;23.98;8.57;;;;;;;15.99;100.00;101758.97;6249113;28;20689;-72
2022/10/31 12:27:09;;;;;;;20.77;8.35;;;;;;;16.06;100.00;101754.13;6249167;28;20147;-72
2022/10/31 12:30:19;;;;;;;17.27;9.10;;;;;;;16.11;100.00;101750.25;6249073;28;20048;-72
2022/10/31 12:33:32;;;;;;;19.73;8.65;;;;;;;16.09;100.00;101753.97;6248660;28;20421;-73
2022/10/31 12:36:45;;;;;;;28.33;12.52;;;;;;;16.06;100.00;101749.69;6247657;28;20049;-73
2022/10/31 12:40:00;;;;;;;27.92;10.90;;;;;;;16.11;100.00;101752.06;6241308;28;20045;-72
2022/10/31 12:43:16;;;;;;;17.35;7.97;;;;;;;16.12;100.00;101743.16;6248735;28;20067;-73
2022/10/31 12:46:30;;;;;;;20.40;10.30;;;;;;;16.17;100.00;101741.94;6248402;28;20057;-72
2022/10/31 12:49:44;;;;;;;22.15;10.32;;;;;;;16.12;100.00;101722.78;6248538;28;20097;-72
2022/10/31 12:52:58;;;;;;;18.63;8.80;;;;;;;16.15;100.00;101714.66;6248715;28;20049;-72
2022/10/31 12:56:12;;;;;;;20.23;9.60;;;;;;;16.09;100.00;101711.53;6248263;28;20050;-73
2022/10/31 12:59:22;;;;;;;21.70;9.35;;;;;;;16.06;100.00;101696.66;6248241;28;20398;-72
2022/10/31 13:02:25;;;;;;;;;;;;;;;16.02;100.00;101697.78;6248775;28;20056;-72
2022/10/31 13:05:33;;;;;;;20.15;8.38;;;;;;;16.02;100.00;101697.78;6247944;28;20303;-72
2022/10/31 13:08:41;;;;;;;30.02;10.95;;;;;;;15.97;100.00;101690.09;6248323;28;20448;-73
2022/10/31 13:11:47;;;;;;;27.83;10.50;;;;;;;15.94;100.00;101689.44;6247801;28;20409;-73
2022/10/31 13:14:53;;;;;;;26.40;9.52;;;;;;;15.82;100.00;101675.16;6248130;28;20054;-72
2022/10/31 13:17:57;;;;;;;23.85;10.15;;;;;;;15.83;100.00;101691.91;6248208;28;20077;-72
2022/10/31 13:21:08;;;;;;;25.13;11.77;;;;;;;15.79;100.00;101674.47;6247167;28;20068;-72
2022/10/31 13:24:15;;;;;;;21.45;9.98;;;;;;;15.85;100.00;101671.44;6247999;28;20064;-72
2022/10/31 13:27:22;;;;;;;30.10;11.75;;;;;;;15.92;100.00;101659.53;6248222;28;20049;-72
2022/10/31 13:30:26;;;;;;;27.65;12.73;;;;;;;15.93;100.00;101645.31;6247687;28;20049;-72
2022/10/31 13:33:32;;;;;;;26.52;10.82;;;;;;;15.92;100.00;101652.41;6247603;28;20080;-72
2022/10/31 13:36:41;;;;;;;24.48;10.35;;;;;;;15.86;100.00;101663.41;6247257;28;20053;-72
2022/10/31 13:40:06;;;;;;;26.70;12.02;;;;;;;15.82;100.00;101666.34;6247150;28;20049;-72
2022/10/31 13:43:19;;;;;;;25.05;11.02;;;;;;;15.75;100.00;101649.09;6247092;28;20054;-72
2022/10/31 13:46:25;;;;;;;26.08;11.23;;;;;;;15.71;100.00;101644.00;6246491;28;20056;-72
2022/10/31 13:49:39;;;;;;;35.25;12.48;;;;;;;15.68;100.00;101628.28;6247474;28;20049;-72
2022/10/31 13:52:42;;;;;;;27.40;10.57;;;;;;;15.63;100.00;101616.22;6247065;28;20176;-72
2022/10/31 13:55:46;;;;;;;25.92;11.68;;;;;;;15.69;100.00;101607.91;6247120;28;20049;-72
2022/10/31 13:59:17;;;;;;;24.13;9.77;;;;;;;15.59;100.00;101606.75;6247117;28;20049;-72
2022/10/31 14:02:26;;;;;;;26.88;11.43;;;;;;;15.51;100.00;101609.84;6246735;28;20544;-72